Conway, New Hampshire
Current Conditions -  °F | °C
As of 1:54 PM on Tuesday 27 Jan 2015 (Local Time) from KIZG Reporting Station
Light Snow Light Snow  
Wind Chill:   Ceiling: 1200
Heat Index: 17°   Visibility: 0.75mi
Dew Point: 12°   Wind: 14mph
Humidity: 81%   Direction: 10°N
Pressure: 29.58"   Gusts: 23mph
Location:  43.98°N, 71.12°W
Report Text: KIZG 271854Z AUTO 01012G20KT 3/4SM -SN VV012 M08/M11 A2958 RMK AO2 PK WND 36029/1808 SLP024 P0000 T10831111
Loading
Personal Weather Stations






























Interactive Weather Map New forecast layout! Learn more

10-Day Weather Forecast

Advertisements
Track Severe Weather on mobile